createdAt,value
2023-02-27T00:01:46.921Z,0.29
2023-02-27T00:04:15.369Z,0.33
2023-02-27T00:23:46.520Z,1.67
2023-02-27T00:26:14.684Z,1.69
2023-02-27T00:28:42.813Z,1.52
2023-02-27T00:31:11.243Z,1.36
2023-02-27T00:33:39.514Z,1.24
2023-02-27T00:36:10.865Z,1.03
2023-02-27T00:38:39.138Z,0.91
2023-02-27T00:41:07.321Z,0.76
2023-02-27T00:43:35.833Z,0.64
2023-02-27T00:46:04.170Z,0.52
2023-02-27T00:48:32.982Z,0.43
2023-02-27T00:51:03.091Z,0.34
2023-02-27T00:53:31.246Z,0.23
2023-02-27T00:55:59.229Z,0.18
2023-02-27T00:58:27.614Z,0.13
2023-02-27T01:00:56.251Z,0.03
2023-02-27T01:03:24.450Z,-0.04
2023-02-27T01:05:53.363Z,-0.09
2023-02-27T01:08:21.614Z,-0.15
2023-02-27T01:10:49.795Z,-0.20
2023-02-27T01:13:18.179Z,-0.25
2023-02-27T01:15:46.583Z,-0.29
2023-02-27T01:18:14.722Z,-0.33
2023-02-27T01:20:43.102Z,-0.37
2023-02-27T01:23:14.552Z,-0.40
2023-02-27T01:25:44.065Z,-0.41
2023-02-27T01:28:12.230Z,-0.43
2023-02-27T01:30:42.195Z,-0.42
2023-02-27T01:33:10.655Z,-0.41
2023-02-27T01:35:41.570Z,-0.39
2023-02-27T01:38:10.578Z,-0.34
2023-02-27T01:40:41.273Z,-0.30
2023-02-27T01:43:18.313Z,-0.22
2023-02-27T01:45:48.893Z,-0.12
2023-02-27T01:48:23.280Z,-0.06
2023-02-27T01:51:05.487Z,-0.12
2023-02-27T01:53:37.602Z,-0.19
2023-02-27T01:56:11.620Z,-0.22
2023-02-27T01:58:40.702Z,-0.15
2023-02-27T02:28:19.139Z,0.74
2023-02-27T02:31:15.721Z,0.63
2023-02-27T02:34:13.817Z,0.54
2023-02-27T02:37:19.452Z,0.45
2023-02-27T02:39:47.523Z,0.26
2023-02-27T02:42:40.275Z,0.21
2023-02-27T02:45:23.396Z,0.23
2023-02-27T02:47:54.529Z,0.24
2023-02-27T02:50:48.929Z,0.26
2023-02-27T02:53:37.759Z,0.29
2023-02-27T02:56:13.530Z,0.31
2023-02-27T02:58:50.719Z,0.36
2023-02-27T03:01:32.782Z,0.45
2023-02-27T03:04:22.519Z,0.50
2023-02-27T03:06:58.604Z,0.50
2023-02-27T03:09:33.769Z,0.52
2023-02-27T03:12:06.224Z,0.51
2023-02-27T03:14:49.620Z,0.42
2023-02-27T03:17:38.596Z,0.33
2023-02-27T03:20:11.516Z,0.25
2023-02-27T03:22:44.731Z,0.22
2023-02-27T03:25:15.327Z,0.17
2023-02-27T03:28:10.674Z,0.08
2023-02-27T03:30:51.290Z,-0.00
2023-02-27T03:33:29.286Z,-0.09
2023-02-27T03:36:12.121Z,-0.16
2023-02-27T03:39:21.908Z,-0.24
2023-02-27T03:42:09.113Z,-0.31
2023-02-27T03:45:08.534Z,-0.37
2023-02-27T03:47:37.109Z,-0.43
2023-02-27T03:50:06.101Z,-0.50
2023-02-27T03:52:34.475Z,-0.56
2023-02-27T03:55:19.226Z,-0.58
2023-02-27T03:57:50.040Z,-0.60
2023-02-27T04:00:21.851Z,-0.64
2023-02-27T04:02:53.310Z,-0.64
2023-02-27T04:05:24.843Z,-0.62
2023-02-27T04:08:16.458Z,-0.61
2023-02-27T04:10:57.469Z,-0.59
2023-02-27T04:13:43.224Z,-0.56
2023-02-27T04:16:32.520Z,-0.53
2023-02-27T04:19:22.260Z,-0.48
2023-02-27T04:22:08.879Z,-0.48
2023-02-27T04:25:01.932Z,-0.49
2023-02-27T04:27:59.383Z,-0.48
2023-02-27T04:30:38.933Z,-0.52
2023-02-27T04:33:09.687Z,-0.55
2023-02-27T04:35:54.782Z,-0.47
2023-02-27T04:38:32.434Z,-0.44
2023-02-27T04:41:10.132Z,-0.42
2023-02-27T04:43:40.865Z,-0.38
2023-02-27T04:46:13.261Z,-0.35
2023-02-27T04:48:49.604Z,-0.30
2023-02-27T04:51:23.201Z,-0.23
2023-02-27T04:53:59.875Z,-0.22
2023-02-27T04:56:33.081Z,-0.24
2023-02-27T04:59:20.485Z,-0.31
2023-02-27T05:01:57.479Z,-0.40
2023-02-27T05:04:30.000Z,-0.44
2023-02-27T05:07:01.288Z,-0.51
2023-02-27T05:09:48.412Z,-0.51
2023-02-27T05:12:29.284Z,-0.55
2023-02-27T05:15:38.818Z,-0.58
2023-02-27T05:18:15.212Z,-0.58
2023-02-27T05:21:16.131Z,-0.62
2023-02-27T05:24:08.660Z,-0.67
2023-02-27T05:27:01.537Z,-0.70
2023-02-27T05:42:32.468Z,-0.05
2023-02-27T05:45:07.818Z,-0.02
2023-02-27T05:47:41.201Z,-0.07
2023-02-27T05:50:13.975Z,-0.07
2023-02-27T05:52:43.488Z,-0.11
2023-02-27T05:55:24.254Z,-0.27
2023-02-27T05:58:19.893Z,-0.31
2023-02-27T06:00:52.464Z,-0.34
2023-02-27T06:03:21.396Z,-0.30
2023-02-27T06:05:55.022Z,-0.26
2023-02-27T06:08:23.343Z,-0.28
2023-02-27T06:10:52.106Z,-0.27
2023-02-27T06:13:20.280Z,-0.28
2023-02-27T06:15:49.524Z,-0.25
2023-02-27T06:18:18.754Z,-0.23
2023-02-27T06:20:48.297Z,-0.21
2023-02-27T06:23:17.317Z,-0.23
2023-02-27T06:25:45.865Z,-0.23
2023-02-27T06:28:14.038Z,-0.24
2023-02-27T06:30:42.166Z,-0.28
2023-02-27T06:33:10.734Z,-0.22
2023-02-27T06:35:38.978Z,-0.17
2023-02-27T06:38:07.359Z,-0.18
2023-02-27T06:40:35.606Z,-0.21
2023-02-27T06:43:03.689Z,-0.24
2023-02-27T06:45:31.862Z,-0.21
2023-02-27T06:48:00.340Z,-0.18
2023-02-27T06:50:28.819Z,-0.16
2023-02-27T06:52:57.048Z,-0.14
2023-02-27T06:55:26.000Z,-0.10
2023-02-27T07:11:34.433Z,0.73
2023-02-27T07:14:02.569Z,0.67
2023-02-27T07:16:30.620Z,0.62
2023-02-27T07:18:59.101Z,0.59
2023-02-27T07:21:27.617Z,0.62
2023-02-27T07:38:14.763Z,1.46
2023-02-27T07:40:43.179Z,1.34
2023-02-27T07:43:11.429Z,1.17
2023-02-27T07:45:39.716Z,1.01
2023-02-27T07:48:07.875Z,0.92
2023-02-27T07:50:35.964Z,0.85
2023-02-27T07:53:05.763Z,0.73
2023-02-27T07:55:34.041Z,0.61
2023-02-27T07:58:02.134Z,0.51
2023-02-27T08:00:30.527Z,0.45
2023-02-27T08:02:58.807Z,0.43
2023-02-27T08:05:27.106Z,0.39
2023-02-27T08:07:55.485Z,0.39
2023-02-27T08:10:23.732Z,0.32
2023-02-27T08:12:52.487Z,0.33
2023-02-27T08:15:21.687Z,0.38
2023-02-27T08:17:49.928Z,0.38
2023-02-27T08:20:19.162Z,0.34
2023-02-27T08:22:47.547Z,0.35
2023-02-27T08:25:16.352Z,0.41
2023-02-27T08:27:44.553Z,0.49
2023-02-27T08:30:13.048Z,0.50
2023-02-27T08:32:41.249Z,0.48
2023-02-27T08:35:09.888Z,0.54
2023-02-27T08:37:38.254Z,0.63
2023-02-27T08:40:07.347Z,0.74
2023-02-27T08:42:35.518Z,0.79
2023-02-27T08:45:04.429Z,0.90
2023-02-27T08:47:32.539Z,1.05
2023-02-27T08:50:01.340Z,1.19
2023-02-27T08:52:29.612Z,1.28
2023-02-27T08:54:57.869Z,1.42
2023-02-27T08:57:26.262Z,1.59
2023-02-27T08:59:54.585Z,1.68
2023-02-27T09:02:27.070Z,1.77
2023-02-27T09:04:55.399Z,1.81
2023-02-27T09:07:23.601Z,1.80
2023-02-27T09:09:51.867Z,1.85
2023-02-27T09:12:19.953Z,1.79
2023-02-27T09:14:48.546Z,1.71
2023-02-27T09:17:16.759Z,1.73
2023-02-27T09:19:44.857Z,1.79
2023-02-27T09:22:12.948Z,1.79
2023-02-27T09:24:41.220Z,1.74
2023-02-27T09:27:09.461Z,1.81
2023-02-27T09:29:37.733Z,1.84
2023-02-27T09:32:06.217Z,1.87
2023-02-27T09:34:34.509Z,1.84
2023-02-27T09:37:02.867Z,1.93
2023-02-27T09:39:31.762Z,2.00
2023-02-27T09:42:05.623Z,2.04
2023-02-27T09:44:47.457Z,2.06
2023-02-27T09:47:20.726Z,2.07
2023-02-27T09:50:02.016Z,2.11
2023-02-27T09:52:32.674Z,2.17
2023-02-27T09:55:01.402Z,2.34
2023-02-27T09:57:32.486Z,2.46
2023-02-27T10:00:07.336Z,2.57
2023-02-27T10:02:55.665Z,2.64
2023-02-27T10:05:38.591Z,2.69
2023-02-27T10:08:23.787Z,2.74
2023-02-27T10:11:08.678Z,2.82
2023-02-27T10:13:49.492Z,2.88
2023-02-27T10:16:21.627Z,2.80
2023-02-27T10:18:59.775Z,2.81
2023-02-27T10:21:42.382Z,2.75
2023-02-27T10:24:27.968Z,2.76
2023-02-27T10:26:59.215Z,2.81
2023-02-27T10:29:41.931Z,2.84
2023-02-27T10:32:25.155Z,3.01
2023-02-27T10:34:59.106Z,3.30
2023-02-27T10:37:28.789Z,3.63
2023-02-27T10:40:00.193Z,3.79
2023-02-27T10:42:33.421Z,3.90
2023-02-27T10:45:02.534Z,4.04
2023-02-27T10:47:31.395Z,4.13
2023-02-27T10:50:00.581Z,4.18
2023-02-27T10:52:28.791Z,4.14
2023-02-27T10:55:18.575Z,4.00
2023-02-27T10:57:47.222Z,3.72
2023-02-27T11:00:52.636Z,3.51
2023-02-27T11:03:25.251Z,3.42
2023-02-27T11:06:22.440Z,3.30
2023-02-27T11:09:18.620Z,3.12
2023-02-27T11:11:46.801Z,3.05
2023-02-27T11:14:29.930Z,2.98
2023-02-27T11:17:00.657Z,3.00
2023-02-27T11:19:33.588Z,2.95
2023-02-27T11:22:03.481Z,2.77
2023-02-27T11:24:32.272Z,2.58
2023-02-27T11:27:06.773Z,2.78
2023-02-27T11:29:35.166Z,3.00
2023-02-27T11:32:22.223Z,3.14
2023-02-27T11:34:52.508Z,3.27
2023-02-27T11:37:34.395Z,3.30
2023-02-27T11:40:14.565Z,3.32
2023-02-27T11:43:11.476Z,3.17
2023-02-27T11:46:05.316Z,2.96
2023-02-27T11:48:39.190Z,2.91
2023-02-27T11:51:29.433Z,2.86
2023-02-27T11:54:00.915Z,2.63
2023-02-27T11:56:49.269Z,2.46
2023-02-27T11:59:24.139Z,2.44
2023-02-27T12:02:23.833Z,2.31
2023-02-27T12:05:19.330Z,2.26
2023-02-27T12:08:05.767Z,2.32
2023-02-27T12:11:11.489Z,2.40
2023-02-27T12:13:47.598Z,2.44
2023-02-27T12:16:15.669Z,2.36
2023-02-27T12:18:51.862Z,2.31
2023-02-27T12:21:24.889Z,2.30
2023-02-27T12:24:25.695Z,2.33
2023-02-27T12:27:25.204Z,2.44
2023-02-27T12:30:07.841Z,2.50
2023-02-27T12:32:58.105Z,2.55
2023-02-27T12:35:33.450Z,2.64
2023-02-27T12:38:02.969Z,2.73
2023-02-27T12:40:38.137Z,2.82
2023-02-27T12:43:33.805Z,2.89
2023-02-27T12:46:18.049Z,2.85
2023-02-27T12:49:04.353Z,2.74
2023-02-27T12:52:07.949Z,2.79
2023-02-27T12:54:47.802Z,2.78
2023-02-27T12:57:28.481Z,2.74
2023-02-27T13:00:08.363Z,2.70
2023-02-27T13:02:45.397Z,2.76
2023-02-27T13:05:43.483Z,2.72
2023-02-27T13:08:28.650Z,2.60
2023-02-27T13:11:06.155Z,2.63
2023-02-27T13:25:18.771Z,3.84
2023-02-27T13:27:51.848Z,3.81
2023-02-27T13:30:28.409Z,3.84
2023-02-27T13:33:13.790Z,3.91
2023-02-27T13:35:52.671Z,4.08
2023-02-27T13:38:50.442Z,4.16
2023-02-27T13:41:21.624Z,4.22
2023-02-27T13:44:20.049Z,4.24
2023-02-27T13:46:48.661Z,4.15
2023-02-27T13:49:29.612Z,4.09
2023-02-27T13:52:05.468Z,3.91
2023-02-27T13:54:39.436Z,3.84
2023-02-27T13:57:19.115Z,3.61
2023-02-27T14:00:05.313Z,3.51
2023-02-27T14:02:59.931Z,3.42
2023-02-27T14:05:43.025Z,3.32
2023-02-27T14:08:25.023Z,3.17
2023-02-27T14:11:10.416Z,3.04
2023-02-27T14:13:51.086Z,2.88
2023-02-27T14:16:37.597Z,2.72
2023-02-27T14:19:23.872Z,2.51
2023-02-27T14:22:01.597Z,2.27
2023-02-27T14:24:49.597Z,2.07
2023-02-27T14:27:27.696Z,1.85
2023-02-27T14:30:04.273Z,1.70
2023-02-27T14:32:38.105Z,1.62
2023-02-27T14:35:06.870Z,1.53
2023-02-27T14:37:36.468Z,1.48
2023-02-27T14:40:06.586Z,1.48
2023-02-27T14:42:52.482Z,1.56
2023-02-27T14:45:24.525Z,1.67
2023-02-27T14:47:53.645Z,1.64
2023-02-27T14:50:34.413Z,1.55
2023-02-27T14:53:03.417Z,1.46
2023-02-27T14:55:36.292Z,1.41
2023-02-27T14:58:07.427Z,1.41
2023-02-27T15:00:50.588Z,1.51
2023-02-27T15:03:22.826Z,1.56
2023-02-27T15:05:53.788Z,1.50
2023-02-27T15:08:36.075Z,1.32
2023-02-27T15:11:04.659Z,1.31
2023-02-27T15:13:36.223Z,1.37
2023-02-27T15:16:26.182Z,1.42
2023-02-27T15:18:58.327Z,1.46
2023-02-27T15:32:50.071Z,2.02
2023-02-27T15:35:27.115Z,1.84
2023-02-27T15:37:57.917Z,1.61
2023-02-27T15:40:33.109Z,1.39
2023-02-27T15:43:01.937Z,1.22
2023-02-27T15:45:34.214Z,1.09
2023-02-27T15:48:04.228Z,0.96
2023-02-27T15:50:38.648Z,0.84
2023-02-27T15:53:17.165Z,0.69
2023-02-27T15:55:51.200Z,0.49
2023-02-27T15:58:35.065Z,0.30
2023-02-27T16:01:13.211Z,0.13
2023-02-27T16:03:48.046Z,-0.01
2023-02-27T16:06:16.077Z,-0.14
2023-02-27T16:08:50.659Z,-0.25
2023-02-27T16:11:24.017Z,-0.30
2023-02-27T16:13:53.374Z,-0.32
2023-02-27T16:16:21.461Z,-0.37
2023-02-27T16:18:52.567Z,-0.41
2023-02-27T16:21:23.986Z,-0.44
2023-02-27T16:23:54.083Z,-0.41
2023-02-27T16:26:25.009Z,-0.38
2023-02-27T16:29:03.867Z,-0.39
2023-02-27T16:31:40.893Z,-0.39
2023-02-27T16:34:45.610Z,-0.40
2023-02-27T16:37:30.905Z,-0.36
2023-02-27T16:39:59.161Z,-0.33
2023-02-27T16:42:27.309Z,-0.31
2023-02-27T16:44:55.393Z,-0.28
2023-02-27T16:47:23.484Z,-0.23
2023-02-27T16:49:51.726Z,-0.19
2023-02-27T16:52:23.135Z,-0.17
2023-02-27T16:54:51.415Z,-0.15
2023-02-27T16:57:19.582Z,-0.19
2023-02-27T16:59:47.904Z,-0.16
2023-02-27T17:02:16.468Z,-0.12
2023-02-27T17:04:46.900Z,-0.14
2023-02-27T17:07:17.310Z,-0.11
2023-02-27T17:09:46.916Z,-0.06
2023-02-27T17:12:15.053Z,-0.09
2023-02-27T17:14:43.297Z,-0.06
2023-02-27T17:17:11.672Z,0.03
2023-02-27T17:19:39.968Z,0.10
2023-02-27T17:22:08.277Z,0.06
2023-02-27T17:24:37.522Z,-0.00
2023-02-27T17:27:05.699Z,-0.05
2023-02-27T17:29:33.846Z,-0.09
2023-02-27T17:32:01.981Z,-0.15
2023-02-27T17:34:30.176Z,-0.13
2023-02-27T17:36:58.224Z,-0.10
2023-02-27T17:39:26.533Z,-0.11
2023-02-27T17:41:54.847Z,-0.14
2023-02-27T17:44:22.913Z,-0.20
2023-02-27T17:46:51.088Z,-0.23
2023-02-27T17:49:19.148Z,-0.27
2023-02-27T17:51:47.436Z,-0.29
2023-02-27T17:54:15.711Z,-0.30
2023-02-27T17:56:43.908Z,-0.32
2023-02-27T17:59:12.005Z,-0.35
2023-02-27T18:01:40.151Z,-0.36
2023-02-27T18:04:11.407Z,-0.36
2023-02-27T18:06:39.618Z,-0.39
2023-02-27T18:09:07.716Z,-0.44
2023-02-27T18:11:37.630Z,-0.48
2023-02-27T18:14:05.808Z,-0.51
2023-02-27T18:16:33.981Z,-0.56
2023-02-27T18:19:09.842Z,-0.61
2023-02-27T18:21:38.300Z,-0.62
2023-02-27T18:24:06.995Z,-0.62
2023-02-27T18:26:35.438Z,-0.61
2023-02-27T18:29:10.310Z,-0.64
2023-02-27T18:31:46.414Z,-0.66
2023-02-27T18:34:14.638Z,-0.68
2023-02-27T18:36:42.795Z,-0.69
2023-02-27T18:39:11.704Z,-0.73
2023-02-27T18:41:40.099Z,-0.77
2023-02-27T18:44:09.010Z,-0.77
2023-02-27T18:46:38.474Z,-0.78
2023-02-27T18:49:06.885Z,-0.80
2023-02-27T18:51:35.232Z,-0.82
2023-02-27T18:54:05.319Z,-0.82
2023-02-27T18:56:33.443Z,-0.83
2023-02-27T18:59:02.197Z,-0.86
2023-02-27T19:01:33.298Z,-0.88
2023-02-27T19:04:05.516Z,-0.91
2023-02-27T19:06:41.039Z,-0.92
2023-02-27T19:09:12.679Z,-0.91
2023-02-27T19:11:42.126Z,-0.86
2023-02-27T19:14:13.583Z,-0.80
2023-02-27T19:16:42.449Z,-0.75
2023-02-27T19:19:11.883Z,-0.73
2023-02-27T19:21:40.362Z,-0.71
2023-02-27T19:24:11.198Z,-0.65
2023-02-27T19:26:40.519Z,-0.61
2023-02-27T19:29:09.000Z,-0.60
2023-02-27T19:31:37.125Z,-0.56
2023-02-27T19:34:05.926Z,-0.56
2023-02-27T19:36:34.940Z,-0.57
2023-02-27T19:39:03.939Z,-0.58
2023-02-27T19:41:33.503Z,-0.53
2023-02-27T19:44:02.104Z,-0.49
2023-02-27T19:46:33.861Z,-0.39
2023-02-27T19:49:04.978Z,-0.37
2023-02-27T19:51:33.294Z,-0.35
2023-02-27T19:54:01.358Z,-0.36
2023-02-27T19:56:30.298Z,-0.37
2023-02-27T19:59:00.712Z,-0.39
2023-02-27T20:01:34.820Z,-0.40
2023-02-27T20:04:03.579Z,-0.48
2023-02-27T20:06:42.020Z,-0.56
2023-02-27T20:09:15.607Z,-0.66
2023-02-27T20:11:44.676Z,-0.76
2023-02-27T20:14:14.490Z,-0.82
2023-02-27T20:16:42.961Z,-0.89
2023-02-27T20:19:14.981Z,-0.94
2023-02-27T20:21:43.610Z,-0.97
2023-02-27T20:24:14.366Z,-1.03
2023-02-27T20:26:48.485Z,-1.07
2023-02-27T20:29:20.281Z,-1.14
2023-02-27T20:31:50.230Z,-1.18
2023-02-27T20:34:26.469Z,-1.21
2023-02-27T20:36:56.089Z,-1.25
2023-02-27T20:39:24.815Z,-1.25
2023-02-27T20:41:53.180Z,-1.28
2023-02-27T20:44:21.344Z,-1.34
2023-02-27T20:46:49.844Z,-1.36
2023-02-27T20:49:18.713Z,-1.37
2023-02-27T20:51:47.092Z,-1.37
2023-02-27T20:54:20.637Z,-1.38
2023-02-27T20:56:54.360Z,-1.40
2023-02-27T20:59:27.416Z,-1.40
2023-02-27T21:01:55.730Z,-1.40
2023-02-27T21:04:42.482Z,-1.41
2023-02-27T21:07:12.844Z,-1.38
2023-02-27T21:09:41.657Z,-1.34
2023-02-27T21:12:09.712Z,-1.30
2023-02-27T21:14:37.878Z,-1.26
2023-02-27T21:17:06.547Z,-1.21
2023-02-27T21:19:34.886Z,-1.16
2023-02-27T21:22:03.628Z,-1.16
2023-02-27T21:24:32.357Z,-1.13
2023-02-27T21:27:00.432Z,-1.09
2023-02-27T21:29:28.608Z,-1.03
2023-02-27T21:31:56.809Z,-0.95
2023-02-27T21:34:26.998Z,-0.87
2023-02-27T21:36:56.093Z,-0.84
2023-02-27T21:39:28.458Z,-0.85
2023-02-27T21:41:59.649Z,-0.90
2023-02-27T21:44:29.888Z,-0.94
2023-02-27T21:46:58.412Z,-0.95
2023-02-27T21:49:28.657Z,-0.97
2023-02-27T21:51:57.331Z,-1.01
2023-02-27T21:54:25.389Z,-1.04
2023-02-27T21:56:53.971Z,-1.04
2023-02-27T21:59:22.228Z,-1.09
2023-02-27T22:01:50.464Z,-1.12
2023-02-27T22:04:20.199Z,-1.14
2023-02-27T22:06:50.453Z,-1.17
2023-02-27T22:09:19.648Z,-1.21
2023-02-27T22:11:48.744Z,-1.27
2023-02-27T22:14:17.223Z,-1.27
2023-02-27T22:16:45.614Z,-1.33
2023-02-27T22:19:20.152Z,-1.35
2023-02-27T22:21:49.118Z,-1.39
2023-02-27T22:24:17.408Z,-1.44
2023-02-27T22:26:45.938Z,-1.48
2023-02-27T22:29:14.367Z,-1.54
2023-02-27T22:31:42.656Z,-1.60
2023-02-27T22:34:15.218Z,-1.63
2023-02-27T22:36:43.796Z,-1.68
2023-02-27T22:39:12.988Z,-1.71
2023-02-27T22:41:42.100Z,-1.72
2023-02-27T22:44:14.187Z,-1.68
2023-02-27T22:46:48.306Z,-1.67
2023-02-27T22:49:21.876Z,-1.63
2023-02-27T22:51:52.158Z,-1.57
2023-02-27T22:54:22.664Z,-1.53
2023-02-27T22:56:53.210Z,-1.49
2023-02-27T22:59:21.935Z,-1.48
2023-02-27T23:01:50.747Z,-1.48
2023-02-27T23:04:19.096Z,-1.49
2023-02-27T23:06:47.929Z,-1.49
2023-02-27T23:09:19.004Z,-1.43
2023-02-27T23:11:47.403Z,-1.36
2023-02-27T23:14:15.820Z,-1.32
2023-02-27T23:16:47.160Z,-1.24
2023-02-27T23:19:18.585Z,-1.22
2023-02-27T23:21:47.599Z,-1.20
2023-02-27T23:24:18.006Z,-1.22
2023-02-27T23:26:51.529Z,-1.24
2023-02-27T23:29:20.177Z,-1.26
2023-02-27T23:31:48.315Z,-1.26
2023-02-27T23:34:16.832Z,-1.26
2023-02-27T23:36:45.209Z,-1.32
2023-02-27T23:39:13.292Z,-1.36
2023-02-27T23:41:41.397Z,-1.41
2023-02-27T23:44:09.418Z,-1.47
2023-02-27T23:46:38.321Z,-1.50
2023-02-27T23:49:06.592Z,-1.56
2023-02-27T23:51:34.971Z,-1.59
2023-02-27T23:54:03.673Z,-1.63
2023-02-27T23:56:31.849Z,-1.64
2023-02-27T23:59:04.342Z,-1.65
